Time;durP1;ratioP1;P1;durP2;ratioP2;P2;SDS_P1;SDS_P2;PMS_P1;PMS_P2;Temp;Humidity;BMP_temperature;BMP_pressure;BME280_temperature;BME280_humidity;BME280_pressure;Samples;Min_cycle;Max_cycle;Signal;HPM_P1;HPM_P2
2021/11/07 00:11:45;;;;;;;3.00;1.17;;;11.00;99.90;;;;;;20563404;28;20074;-44
2021/11/07 00:21:53;;;;;;;8.73;2.38;;;11.20;99.90;;;;;;20552646;28;20043;-43
2021/11/07 00:52:16;;;;;;;5.90;1.52;;;11.40;99.90;;;;;;20482611;28;20031;-43
2021/11/07 01:02:23;;;;;;;2.83;1.30;;;11.40;99.90;;;;;;20564131;28;20066;-43
2021/11/07 01:12:26;;;;;;;6.03;1.92;;;11.60;99.90;;;;;;20564417;28;20665;-43
2021/11/07 01:33:01;;;;;;;8.02;1.30;;;11.70;99.90;;;;;;20544304;28;20050;-43
2021/11/07 01:43:03;;;;;;;6.22;2.22;;;11.80;99.90;;;;;;20555957;28;20050;-43
2021/11/07 02:03:38;;;;;;;7.43;1.50;;;12.00;99.90;;;;;;20572586;28;20070;-43
2021/11/07 02:13:40;;;;;;;9.45;2.13;;;12.00;99.90;;;;;;20552635;28;20045;-43
2021/11/07 02:23:41;;;;;;;8.85;2.15;;;12.20;99.90;;;;;;20550082;28;20046;-43
2021/11/07 02:33:42;;;;;;;9.38;2.10;;;12.10;99.90;;;;;;20549712;28;20043;-43
2021/11/07 02:43:47;;;;;;;4.35;1.38;;;12.30;99.90;;;;;;20540557;28;20057;-43
2021/11/07 02:53:48;;;;;;;4.15;0.88;;;12.30;99.90;;;;;;20537685;28;20038;-43
2021/11/07 03:03:51;;;;;;;6.28;0.95;;;11.90;99.90;;;;;;20543116;28;20050;-43
2021/11/07 03:13:52;;;;;;;4.15;0.85;;;11.60;99.90;;;;;;20539559;28;20050;-43
2021/11/07 03:23:53;;;;;;;5.03;1.33;;;11.40;99.90;;;;;;20560467;28;20046;-43
2021/11/07 03:33:58;;;;;;;5.82;0.88;;;11.10;99.90;;;;;;21000931;23;20062;-44
2021/11/07 03:43:59;;;;;;;3.95;0.82;;;10.90;99.90;;;;;;20416992;28;20641;-43
2021/11/07 03:54:02;;;;;;;8.70;1.30;;;11.00;99.90;;;;;;20414336;28;20050;-43
2021/11/07 04:04:05;;;;;;;4.53;0.60;;;10.90;99.90;;;;;;20420254;28;20046;-43
2021/11/07 04:14:07;;;;;;;6.30;1.00;;;10.90;99.90;;;;;;20421670;28;20043;-43
2021/11/07 04:24:08;;;;;;;2.25;0.50;;;10.80;99.90;;;;;;20427143;28;20054;-43
2021/11/07 04:34:11;;;;;;;2.97;0.65;;;10.90;99.90;;;;;;20441251;28;20146;-43
2021/11/07 04:44:12;;;;;;;3.67;0.50;;;10.80;99.90;;;;;;20508461;28;20046;-43
2021/11/07 04:54:13;;;;;;;5.47;2.72;;;10.50;99.90;;;;;;20518977;28;20551;-44
2021/11/07 05:04:15;;;;;;;4.72;0.93;;;10.30;99.90;;;;;;20523261;28;20047;-43
2021/11/07 05:14:16;;;;;;;3.75;0.38;;;10.20;99.90;;;;;;20514073;28;20089;-43
2021/11/07 05:24:18;;;;;;;10.98;1.75;;;10.30;99.90;;;;;;20530169;28;20062;-43
2021/11/07 05:34:19;;;;;;;4.50;0.73;;;10.20;99.90;;;;;;20528940;28;20050;-43
2021/11/07 05:44:20;;;;;;;3.25;0.93;;;10.20;99.90;;;;;;20526326;28;20043;-43
2021/11/07 05:54:22;;;;;;;5.15;1.10;;;10.30;99.90;;;;;;20529863;28;20038;-43
2021/11/07 06:04:23;;;;;;;14.20;1.27;;;10.30;99.90;;;;;;20530135;28;20623;-43
2021/11/07 06:14:24;;;;;;;37.95;1.90;;;10.20;99.90;;;;;;20536708;28;20054;-44
2021/11/07 06:24:27;;;;;;;1.77;0.65;;;10.30;99.90;;;;;;20494550;28;20413;-43
2021/11/07 06:34:28;;;;;;;8.00;0.70;;;10.30;99.90;;;;;;20519116;28;20047;-43
2021/11/07 06:44:30;;;;;;;2.53;0.32;;;10.30;99.90;;;;;;20522956;28;20057;-43
2021/11/07 06:54:31;;;;;;;6.75;0.98;;;10.30;99.90;;;;;;20507572;28;20069;-43
2021/11/07 07:04:32;;;;;;;3.67;0.85;;;10.10;99.90;;;;;;20509707;28;20066;-43
2021/11/07 07:14:48;;;;;;;9.38;1.77;;;10.00;99.90;;;;;;20530235;28;20035;-44
2021/11/07 07:25:07;;;;;;;5.22;0.80;;;9.90;99.90;;;;;;20519047;28;20051;-43
2021/11/07 07:35:10;;;;;;;9.70;1.15;;;10.00;99.90;;;;;;20530176;28;20652;-43
2021/11/07 07:45:12;;;;;;;4.05;1.10;;;10.20;99.90;;;;;;20523417;28;20453;-43
2021/11/07 07:55:16;;;;;;;3.35;1.15;;;10.40;99.90;;;;;;20519714;28;20040;-43
2021/11/07 08:05:17;;;;;;;6.47;0.90;;;10.50;99.90;;;;;;20519798;28;20047;-43
2021/11/07 08:15:18;;;;;;;9.18;0.95;;;10.70;99.90;;;;;;20519593;28;20584;-43
2021/11/07 08:25:21;;;;;;;3.97;1.10;;;10.80;99.90;;;;;;20524611;28;20061;-43
2021/11/07 08:35:23;;;;;;;9.20;1.67;;;10.80;99.90;;;;;;20538066;28;20051;-43
2021/11/07 09:06:22;;;;;;;5.25;0.80;;;11.40;99.90;;;;;;20530775;28;20041;-43
2021/11/07 09:16:23;;;;;;;;;;;11.70;99.90;;;;;;20532561;28;20054;-43
2021/11/07 09:46:40;;;;;;;2.20;0.77;;;11.90;99.90;;;;;;20536175;28;20088;-43
2021/11/07 09:56:47;;;;;;;2.20;0.90;;;11.90;99.90;;;;;;20521208;28;20055;-43
2021/11/07 10:06:52;;;;;;;3.90;0.60;;;12.00;99.90;;;;;;20520912;28;20051;-43
2021/11/07 10:16:54;;;;;;;4.38;0.60;;;12.10;99.90;;;;;;20496309;28;20062;-44
2021/11/07 10:27:02;;;;;;;6.43;0.70;;;12.40;99.90;;;;;;20526403;28;20523;-43
2021/11/07 10:57:57;;;;;;;6.05;0.90;;;12.80;99.90;;;;;;20492823;28;20307;-43
2021/11/07 11:08:04;;;;;;;4.00;0.77;;;12.80;99.90;;;;;;20501727;28;20039;-44
2021/11/07 11:19:07;;;;;;;1.47;0.50;;;12.10;99.90;;;;;;20494493;28;20476;-43
2021/11/07 11:28:47;;;;;;;12.20;1.90;;;10.50;99.90;;;;;;20504883;28;21662;-44
2021/11/07 11:38:59;;;;;;;3.08;0.60;;;10.10;99.90;;;;;;20501047;28;20400;-43
2021/11/07 11:50:05;;;;;;;9.35;1.92;;;10.10;99.90;;;;;;20503645;28;20125;-43
2021/11/07 12:00:21;;;;;;;7.63;0.82;;;10.20;99.90;;;;;;20475817;28;20050;-43
2021/11/07 12:10:29;;;;;;;9.45;1.42;;;10.20;99.90;;;;;;20502691;28;20043;-43
2021/11/07 12:20:36;;;;;;;4.60;1.58;;;10.40;99.90;;;;;;20508971;28;20067;-43
2021/11/07 12:30:39;;;;;;;7.20;1.37;;;10.40;99.90;;;;;;20485041;28;20043;-43
2021/11/07 12:41:16;;;;;;;10.57;1.40;;;11.00;99.90;;;;;;20514606;28;20548;-43
2021/11/07 12:51:31;;;;;;;7.38;0.77;;;11.00;99.90;;;;;;20485797;28;20059;-43
2021/11/07 13:02:11;;;;;;;1.38;0.60;;;11.60;99.90;;;;;;20518364;28;20054;-43
2021/11/07 13:12:22;;;;;;;3.83;0.88;;;11.70;99.90;;;;;;20529523;28;20150;-43
2021/11/07 13:22:39;;;;;;;9.13;0.80;;;12.80;99.90;;;;;;20530187;28;20066;-43
2021/11/07 13:32:40;;;;;;;8.57;1.70;;;12.40;99.90;;;;;;20512921;28;20032;-43
2021/11/07 13:42:43;;;;;;;3.20;1.17;;;12.20;99.90;;;;;;20529268;28;20058;-43
2021/11/07 13:52:44;;;;;;;6.18;0.50;;;12.00;99.90;;;;;;20520281;28;20043;-43
2021/11/07 14:02:51;;;;;;;11.63;0.90;;;12.10;99.90;;;;;;20532348;28;20042;-44
2021/11/07 14:12:57;;;;;;;4.70;0.50;;;12.10;99.90;;;;;;20515978;28;20042;-43
2021/11/07 14:23:04;;;;;;;6.82;0.65;;;11.50;99.90;;;;;;20511319;28;20042;-43
2021/11/07 14:33:12;;;;;;;2.25;0.50;;;11.10;99.90;;;;;;20526875;28;20026;-43
2021/11/07 15:03:22;;;;;;;6.75;1.27;;;10.20;99.90;;;;;;20512884;28;20508;-43
2021/11/07 15:23:40;;;;;;;5.88;0.85;;;9.70;99.90;;;;;;20509649;28;20537;-43
2021/11/07 15:33:45;;;;;;;7.32;1.38;;;9.50;99.90;;;;;;20519100;28;20417;-43
2021/11/07 15:43:48;;;;;;;8.97;1.30;;;9.60;99.90;;;;;;20525998;28;20046;-43
2021/11/07 15:53:59;;;;;;;3.35;1.17;;;9.70;99.90;;;;;;20501347;28;20048;-43
2021/11/07 16:24:07;;;;;;;4.60;1.15;;;9.50;99.90;;;;;;20505256;28;20498;-43
2021/11/07 16:34:10;;;;;;;8.00;1.27;;;9.30;99.90;;;;;;20503049;28;20055;-43
2021/11/07 16:44:15;;;;;;;4.05;1.05;;;9.10;99.90;;;;;;20516271;28;20047;-43
2021/11/07 16:54:20;;;;;;;5.45;1.27;;;9.00;99.90;;;;;;20513107;28;20050;-43
2021/11/07 17:04:26;;;;;;;6.32;1.00;;;9.00;99.90;;;;;;20496285;28;20042;-43
2021/11/07 17:14:29;;;;;;;3.67;0.77;;;9.10;99.90;;;;;;20515180;28;20049;-43
2021/11/07 17:24:38;;;;;;;5.97;1.05;;;9.10;99.90;;;;;;20509512;28;20050;-43
2021/11/07 17:55:01;;;;;;;;;;;9.60;99.90;;;;;;20530524;28;20525;-43
2021/11/07 18:05:03;;;;;;;8.10;1.33;;;9.40;99.90;;;;;;20523003;28;19933;-43
2021/11/07 18:15:09;;;;;;;3.90;0.77;;;9.40;99.90;;;;;;20519161;28;20046;-43
2021/11/07 18:25:16;;;;;;;6.63;1.30;;;9.40;99.90;;;;;;20490769;28;20085;-43
2021/11/07 18:35:17;;;;;;;;;;;9.30;99.90;;;;;;20514478;28;20059;-43
2021/11/07 18:45:21;;;;;;;6.03;1.55;;;9.10;99.90;;;;;;20525152;28;20021;-43
2021/11/07 18:55:22;;;;;;;21.23;2.38;;;9.20;99.90;;;;;;20525474;28;20034;-43
2021/11/07 19:05:24;;;;;;;6.20;1.17;;;8.90;99.90;;;;;;20515487;28;20043;-43
2021/11/07 19:15:27;;;;;;;9.55;2.08;;;8.60;99.90;;;;;;20505379;28;20035;-43
2021/11/07 19:25:29;;;;;;;5.35;3.20;;;8.40;99.90;;;;;;20507277;28;20053;-43
2021/11/07 19:35:31;;;;;;;4.43;2.10;;;8.30;99.90;;;;;;20516716;28;20062;-43
2021/11/07 19:45:32;;;;;;;6.13;1.73;;;8.10;99.90;;;;;;20515121;28;20045;-43
2021/11/07 19:55:34;;;;;;;5.43;0.93;;;8.00;99.90;;;;;;20518687;28;20062;-43
2021/11/07 20:15:39;;;;;;;10.82;1.77;;;7.90;99.90;;;;;;20512803;28;20043;-43
2021/11/07 20:25:41;;;;;;;2.42;0.93;;;7.90;99.90;;;;;;20508122;28;20046;-43
2021/11/07 20:35:53;;;;;;;2.05;0.90;;;7.90;99.90;;;;;;20521281;28;20042;-43
2021/11/07 21:16:43;;;;;;;7.40;2.00;;;7.50;99.90;;;;;;20537958;28;20043;-43
2021/11/07 21:26:49;;;;;;;10.15;1.65;;;7.50;99.90;;;;;;20489259;28;20047;-43
2021/11/07 21:46:55;;;;;;;4.10;1.50;;;7.80;99.90;;;;;;20513220;28;20047;-43
2021/11/07 21:56:57;;;;;;;7.90;2.20;;;7.70;99.90;;;;;;20516272;28;20050;-43
2021/11/07 22:06:58;;;;;;;5.68;2.25;;;7.70;99.90;;;;;;20507502;28;20047;-43
2021/11/07 22:17:02;;;;;;;1.88;0.70;;;7.60;99.90;;;;;;20520424;28;20429;-43
2021/11/07 22:27:03;;;;;;;2.40;0.55;;;7.60;99.90;;;;;;20500670;28;20054;-43
2021/11/07 22:37:06;;;;;;;2.72;0.60;;;7.60;99.90;;;;;;20506950;28;20138;-43
2021/11/07 22:47:11;;;;;;;2.13;0.63;;;7.90;99.90;;;;;;20489802;28;20631;-43
2021/11/07 22:57:27;;;;;;;3.30;1.10;;;8.00;99.90;;;;;;20504887;28;20035;-43
2021/11/07 23:07:28;;;;;;;4.35;0.98;;;8.10;99.90;;;;;;20498466;28;20062;-43
2021/11/07 23:17:37;;;;;;;2.08;0.55;;;8.00;99.90;;;;;;20471373;28;20489;-43
2021/11/07 23:27:39;;;;;;;6.53;1.40;;;8.00;99.90;;;;;;20494422;28;20066;-43
2021/11/07 23:37:44;;;;;;;2.83;1.13;;;7.90;99.90;;;;;;20492605;28;20044;-43
2021/11/07 23:47:46;;;;;;;1.52;0.43;;;7.80;99.90;;;;;;20499434;28;20043;-43
2021/11/07 23:57:49;;;;;;;5.18;0.68;;;7.70;99.90;;;;;;20498399;28;20050;-43
